createdAt,value
2022-11-16T00:00:48.230Z,6.47
2022-11-16T00:03:22.852Z,8.10
2022-11-16T00:05:59.524Z,7.22
2022-11-16T00:08:36.703Z,8.35
2022-11-16T00:11:12.451Z,7.58
2022-11-16T00:13:46.670Z,7.53
2022-11-16T00:16:20.521Z,7.05
2022-11-16T00:18:58.308Z,6.50
2022-11-16T00:24:03.405Z,7.20
2022-11-16T00:26:36.749Z,5.72
2022-11-16T00:29:14.667Z,6.08
2022-11-16T00:31:48.988Z,5.87
2022-11-16T00:34:23.078Z,5.15
2022-11-16T00:36:56.676Z,6.35
2022-11-16T00:39:30.321Z,6.35
2022-11-16T00:42:03.958Z,6.28
2022-11-16T00:44:37.659Z,6.33
2022-11-16T00:47:11.149Z,6.37
2022-11-16T00:49:44.607Z,6.58
2022-11-16T00:52:18.466Z,6.58
2022-11-16T00:54:51.967Z,7.22
2022-11-16T00:57:26.000Z,6.30
2022-11-16T00:59:59.803Z,6.65
2022-11-16T01:02:34.559Z,6.62
2022-11-16T01:05:11.048Z,5.33
2022-11-16T01:07:44.623Z,6.50
2022-11-16T01:10:20.902Z,6.00
2022-11-16T01:12:55.182Z,6.03
2022-11-16T01:15:29.507Z,6.72
2022-11-16T01:18:03.048Z,6.53
2022-11-16T01:20:36.781Z,5.40
2022-11-16T01:23:10.082Z,6.33
2022-11-16T01:25:43.190Z,5.87
2022-11-16T01:28:16.953Z,5.55
2022-11-16T01:30:52.065Z,6.62
2022-11-16T01:33:26.443Z,5.67
2022-11-16T01:36:00.108Z,5.53
2022-11-16T01:38:35.063Z,5.95
2022-11-16T01:41:09.209Z,7.83
2022-11-16T01:43:56.161Z,5.45
2022-11-16T01:46:31.886Z,6.05
2022-11-16T01:49:08.339Z,5.20
2022-11-16T01:51:44.341Z,6.28
2022-11-16T01:54:19.674Z,5.65
2022-11-16T01:56:57.380Z,6.03
2022-11-16T02:02:06.501Z,5.95
2022-11-16T02:04:40.402Z,5.10
2022-11-16T02:07:17.307Z,5.90
2022-11-16T02:10:07.138Z,4.72
2022-11-16T02:12:56.687Z,5.87
2022-11-16T02:15:34.777Z,5.40
2022-11-16T02:18:19.567Z,5.28
2022-11-16T02:21:21.245Z,4.70
2022-11-16T02:24:30.181Z,4.20
2022-11-16T02:27:22.217Z,4.33
2022-11-16T02:29:57.369Z,4.92
2022-11-16T02:32:33.874Z,4.10
2022-11-16T02:35:10.797Z,4.58
2022-11-16T02:37:47.305Z,5.20
2022-11-16T02:40:26.013Z,4.12
2022-11-16T02:45:36.514Z,4.75
2022-11-16T02:48:13.650Z,5.00
2022-11-16T02:50:49.968Z,6.53
2022-11-16T02:53:25.738Z,5.53
2022-11-16T02:56:00.763Z,4.00
2022-11-16T02:58:34.923Z,4.90
2022-11-16T03:01:12.064Z,4.67
2022-11-16T03:03:49.055Z,3.93
2022-11-16T03:06:25.566Z,4.35
2022-11-16T03:09:01.883Z,4.28
2022-11-16T03:11:56.334Z,4.58
2022-11-16T03:14:33.033Z,4.47
2022-11-16T03:17:08.919Z,4.17
2022-11-16T03:19:45.623Z,4.22
2022-11-16T03:22:21.893Z,4.92
2022-11-16T03:24:55.978Z,4.17
2022-11-16T03:27:32.364Z,4.58
2022-11-16T03:30:10.976Z,5.62
2022-11-16T03:32:48.682Z,4.85
2022-11-16T03:35:26.756Z,4.03
2022-11-16T03:38:02.150Z,4.00
2022-11-16T03:40:37.752Z,3.92
2022-11-16T03:43:11.724Z,4.78
2022-11-16T03:45:47.153Z,4.40
2022-11-16T03:48:20.737Z,4.05
2022-11-16T03:50:54.577Z,5.03
2022-11-16T03:53:28.193Z,4.62
2022-11-16T03:56:01.330Z,4.50
2022-11-16T03:58:35.862Z,5.30
2022-11-16T04:01:09.803Z,5.22
2022-11-16T04:03:43.378Z,4.95
2022-11-16T04:06:34.635Z,5.55
2022-11-16T04:09:25.526Z,4.67
2022-11-16T04:12:16.381Z,5.58
2022-11-16T04:15:07.559Z,3.87
2022-11-16T04:17:59.302Z,5.00
2022-11-16T04:20:50.380Z,4.53
2022-11-16T04:23:42.236Z,4.97
2022-11-16T04:26:16.047Z,5.67
2022-11-16T04:28:49.541Z,4.92
2022-11-16T04:31:50.722Z,5.28
2022-11-16T04:34:41.798Z,5.40
2022-11-16T04:37:35.583Z,5.05
2022-11-16T04:40:12.614Z,6.33
2022-11-16T04:42:47.802Z,4.70
2022-11-16T04:45:39.290Z,4.90
2022-11-16T04:48:14.924Z,6.10
2022-11-16T04:50:48.660Z,7.33
2022-11-16T04:53:24.475Z,5.10
2022-11-16T04:56:02.546Z,5.00
2022-11-16T04:58:36.578Z,5.75
2022-11-16T05:01:10.299Z,5.22
2022-11-16T05:03:43.656Z,4.72
2022-11-16T05:06:17.575Z,5.85
2022-11-16T05:08:51.292Z,6.22
2022-11-16T05:11:25.327Z,6.20
2022-11-16T05:13:58.804Z,6.05
2022-11-16T05:16:32.422Z,6.00
2022-11-16T05:19:23.600Z,5.33
2022-11-16T05:21:57.352Z,5.35
2022-11-16T05:24:34.516Z,6.85
2022-11-16T05:27:11.666Z,5.85
2022-11-16T05:29:46.186Z,6.08
2022-11-16T05:32:22.111Z,5.97
2022-11-16T05:34:56.110Z,4.90
2022-11-16T05:37:30.625Z,5.35
2022-11-16T05:40:04.048Z,6.72
2022-11-16T05:42:39.016Z,6.22
2022-11-16T05:45:18.399Z,6.28
2022-11-16T05:47:49.280Z,6.55
2022-11-16T05:50:23.610Z,7.40
2022-11-16T05:52:58.805Z,6.08
2022-11-16T05:55:32.292Z,7.08
2022-11-16T05:58:05.777Z,6.00
2022-11-16T06:00:39.805Z,6.97
2022-11-16T06:03:15.090Z,6.80
2022-11-16T06:05:48.850Z,6.15
2022-11-16T06:08:22.519Z,5.20
2022-11-16T06:10:57.131Z,5.58
2022-11-16T06:13:30.487Z,6.62
2022-11-16T06:16:05.475Z,6.78
2022-11-16T06:18:41.202Z,6.50
2022-11-16T06:21:19.801Z,5.78
2022-11-16T06:23:53.771Z,7.72
2022-11-16T06:26:27.467Z,6.40
2022-11-16T06:29:00.692Z,5.90
2022-11-16T06:31:34.262Z,5.08
2022-11-16T06:34:09.034Z,6.25
2022-11-16T06:36:44.681Z,5.25
2022-11-16T06:39:18.437Z,4.58
2022-11-16T06:41:52.195Z,5.03
2022-11-16T06:44:25.716Z,4.97
2022-11-16T06:47:00.558Z,4.53
2022-11-16T06:49:34.212Z,4.33
2022-11-16T06:52:08.914Z,5.47
2022-11-16T06:54:42.305Z,5.62
2022-11-16T06:57:15.771Z,3.92
2022-11-16T06:59:49.230Z,4.50
2022-11-16T07:02:23.651Z,3.92
2022-11-16T07:05:03.159Z,4.70
2022-11-16T07:07:33.826Z,4.20
2022-11-16T07:10:09.009Z,4.15
2022-11-16T07:12:44.404Z,3.80
2022-11-16T07:15:19.548Z,4.05
2022-11-16T07:17:53.195Z,4.60
2022-11-16T07:20:27.151Z,4.92
2022-11-16T07:23:03.251Z,4.53
2022-11-16T07:25:37.957Z,4.33
2022-11-16T07:28:11.181Z,4.35
2022-11-16T07:30:45.583Z,4.28
2022-11-16T07:34:12.816Z,5.60
2022-11-16T07:37:56.154Z,8.43
2022-11-16T07:40:49.744Z,5.30
2022-11-16T07:43:24.793Z,6.10
2022-11-16T07:46:44.743Z,5.50
2022-11-16T07:48:42.703Z,5.92
2022-11-16T07:51:27.059Z,5.90
2022-11-16T07:54:01.924Z,6.17
2022-11-16T07:56:35.509Z,5.33
2022-11-16T07:59:10.515Z,5.85
2022-11-16T08:01:45.195Z,6.00
2022-11-16T08:04:19.110Z,6.75
2022-11-16T08:06:54.531Z,5.95
2022-11-16T08:09:28.233Z,5.42
2022-11-16T08:12:02.121Z,5.67
2022-11-16T08:14:36.334Z,6.03
2022-11-16T08:17:09.684Z,6.42
2022-11-16T08:19:43.604Z,6.05
2022-11-16T08:22:18.779Z,5.15
2022-11-16T08:24:52.233Z,5.95
2022-11-16T08:27:25.599Z,5.97
2022-11-16T08:30:00.288Z,7.45
2022-11-16T08:32:34.811Z,6.37
2022-11-16T08:35:10.313Z,6.28
2022-11-16T08:37:43.817Z,6.65
2022-11-16T08:40:17.585Z,6.30
2022-11-16T08:42:54.119Z,6.37
2022-11-16T08:45:28.135Z,6.83
2022-11-16T08:48:04.207Z,6.85
2022-11-16T08:51:02.360Z,7.72
2022-11-16T08:53:16.232Z,6.40
2022-11-16T08:55:49.756Z,7.65
2022-11-16T08:58:23.403Z,6.45
2022-11-16T09:00:56.915Z,5.97
2022-11-16T09:03:31.095Z,7.12
2022-11-16T09:06:04.560Z,5.58
2022-11-16T09:08:39.895Z,6.15
2022-11-16T09:11:15.886Z,6.72
2022-11-16T09:13:51.241Z,6.05
2022-11-16T09:16:24.962Z,6.03
2022-11-16T09:18:58.710Z,5.25
2022-11-16T09:21:32.718Z,6.05
2022-11-16T09:24:07.484Z,5.65
2022-11-16T09:26:40.876Z,5.45
2022-11-16T09:29:16.438Z,6.40
2022-11-16T09:31:50.515Z,4.95
2022-11-16T09:34:24.145Z,5.17
2022-11-16T09:36:57.817Z,4.60
2022-11-16T09:39:32.695Z,5.17
2022-11-16T09:42:23.720Z,4.65
2022-11-16T09:45:04.875Z,3.70
2022-11-16T09:47:50.272Z,3.75
2022-11-16T09:50:35.607Z,4.33
2022-11-16T09:53:20.695Z,3.83
2022-11-16T09:55:55.516Z,4.08
2022-11-16T09:58:31.937Z,4.58
2022-11-16T10:01:09.124Z,3.72
2022-11-16T10:03:45.681Z,3.95
2022-11-16T10:06:23.874Z,3.80
2022-11-16T10:08:57.894Z,4.20
2022-11-16T10:12:13.608Z,3.52
2022-11-16T10:15:23.811Z,3.85
2022-11-16T10:18:03.631Z,4.00
2022-11-16T10:20:57.816Z,4.03
2022-11-16T10:23:38.354Z,4.33
2022-11-16T10:26:17.840Z,4.10
2022-11-16T10:29:01.454Z,4.10
2022-11-16T10:31:41.327Z,4.35
2022-11-16T10:34:17.903Z,3.77
2022-11-16T10:36:51.484Z,3.83
2022-11-16T10:39:27.645Z,3.37
2022-11-16T10:42:07.403Z,3.70
2022-11-16T10:44:42.836Z,3.58
2022-11-16T10:47:21.241Z,3.87
2022-11-16T10:50:00.778Z,3.47
2022-11-16T10:52:34.818Z,3.80
2022-11-16T10:55:11.705Z,2.70
2022-11-16T11:00:52.009Z,3.10
2022-11-16T11:03:34.347Z,3.22
2022-11-16T11:06:11.955Z,4.22
2022-11-16T11:08:45.806Z,1.80
2022-11-16T11:11:41.815Z,3.45
2022-11-16T11:14:16.832Z,2.80
2022-11-16T11:16:54.797Z,2.90
2022-11-16T11:19:30.530Z,2.67
2022-11-16T11:22:03.888Z,2.58
2022-11-16T11:24:44.465Z,2.80
2022-11-16T11:27:13.223Z,2.95
2022-11-16T11:29:47.942Z,2.67
2022-11-16T11:32:24.651Z,3.12
2022-11-16T11:35:01.100Z,3.60
2022-11-16T11:37:37.547Z,3.05
2022-11-16T11:40:22.818Z,2.90
2022-11-16T11:42:59.594Z,3.70
2022-11-16T11:45:42.625Z,3.75
2022-11-16T11:48:26.967Z,3.98
2022-11-16T11:51:03.397Z,3.55
2022-11-16T11:53:45.295Z,3.35
2022-11-16T11:56:19.039Z,4.62
2022-11-16T11:58:52.898Z,3.60
2022-11-16T12:02:06.543Z,3.02
2022-11-16T12:05:21.987Z,3.83
2022-11-16T12:08:17.423Z,3.30
2022-11-16T12:10:53.514Z,3.35
2022-11-16T12:13:38.855Z,3.42
2022-11-16T12:16:15.390Z,4.17
2022-11-16T12:19:14.650Z,3.98
2022-11-16T12:21:53.214Z,4.33
2022-11-16T12:24:45.617Z,3.92
2022-11-16T12:27:25.082Z,5.70
2022-11-16T12:30:03.241Z,4.17
2022-11-16T12:32:53.441Z,4.10
2022-11-16T12:35:40.517Z,5.25
2022-11-16T12:38:38.856Z,3.60
2022-11-16T12:41:20.804Z,3.45
2022-11-16T12:43:57.086Z,3.72
2022-11-16T12:46:34.830Z,4.10
2022-11-16T12:49:43.217Z,4.90
2022-11-16T12:52:30.621Z,4.58
2022-11-16T12:55:30.052Z,4.47
2022-11-16T12:57:53.458Z,4.60
2022-11-16T13:00:28.153Z,3.47
2022-11-16T13:03:16.840Z,3.62
2022-11-16T13:05:56.723Z,3.58
2022-11-16T13:11:39.760Z,3.40
2022-11-16T13:14:17.235Z,3.70
2022-11-16T13:16:51.575Z,4.50
2022-11-16T13:19:25.830Z,4.35
2022-11-16T13:22:03.785Z,3.80
2022-11-16T13:24:49.129Z,4.00
2022-11-16T13:27:32.878Z,4.30
2022-11-16T13:30:11.903Z,4.37
2022-11-16T13:33:00.972Z,4.75
2022-11-16T13:35:39.183Z,4.45
2022-11-16T13:38:14.314Z,6.12
2022-11-16T13:40:48.041Z,6.37
2022-11-16T13:43:22.771Z,4.97
2022-11-16T13:46:02.378Z,5.70
2022-11-16T13:48:39.031Z,5.00
2022-11-16T13:51:19.953Z,5.03
2022-11-16T13:56:32.057Z,4.93
2022-11-16T13:59:07.261Z,5.60
2022-11-16T14:02:00.578Z,4.95
2022-11-16T14:04:42.935Z,5.30
2022-11-16T14:07:39.418Z,5.08
2022-11-16T14:10:36.048Z,4.53
2022-11-16T14:13:14.131Z,5.25
2022-11-16T14:15:49.583Z,5.15
2022-11-16T14:18:37.460Z,5.60
2022-11-16T14:21:19.455Z,5.45
2022-11-16T14:24:06.317Z,5.28
2022-11-16T14:26:49.257Z,5.90
2022-11-16T14:29:58.901Z,5.10
2022-11-16T14:32:42.449Z,5.37
2022-11-16T14:35:26.601Z,5.60
2022-11-16T14:38:03.645Z,6.03
2022-11-16T14:40:39.920Z,5.55
2022-11-16T14:43:18.986Z,6.53
2022-11-16T14:45:55.800Z,5.10
2022-11-16T14:48:29.517Z,5.80
2022-11-16T14:51:11.898Z,5.25
2022-11-16T14:53:48.397Z,6.37
2022-11-16T14:56:22.856Z,5.70
2022-11-16T14:58:57.745Z,5.83
2022-11-16T15:01:33.770Z,6.17
2022-11-16T15:04:09.961Z,5.78
2022-11-16T15:06:46.101Z,5.78
2022-11-16T15:09:24.350Z,6.50
2022-11-16T15:12:16.465Z,5.70
2022-11-16T15:14:51.708Z,7.60
2022-11-16T15:17:31.796Z,6.58
2022-11-16T15:20:03.180Z,7.08
2022-11-16T15:22:42.837Z,7.78
2022-11-16T15:25:29.269Z,8.25
2022-11-16T15:28:06.401Z,8.15
2022-11-16T15:30:41.388Z,8.13
2022-11-16T15:33:18.727Z,8.75
2022-11-16T15:35:53.694Z,7.33
2022-11-16T15:38:29.550Z,8.00
2022-11-16T15:41:04.685Z,9.88
2022-11-16T15:44:01.379Z,7.65
2022-11-16T15:46:17.199Z,7.85
2022-11-16T15:48:50.574Z,8.80
2022-11-16T15:51:25.071Z,8.93
2022-11-16T15:54:00.489Z,10.05
2022-11-16T15:56:35.614Z,7.83
2022-11-16T15:59:16.268Z,9.85
2022-11-16T16:01:50.409Z,8.65
2022-11-16T16:04:24.169Z,9.78
2022-11-16T16:06:59.550Z,8.10
2022-11-16T16:09:35.076Z,8.25
2022-11-16T16:12:22.677Z,9.88
2022-11-16T16:17:30.883Z,8.98
2022-11-16T16:20:06.687Z,10.18
2022-11-16T16:22:40.187Z,11.25
2022-11-16T16:25:32.309Z,9.60
2022-11-16T16:28:06.107Z,8.58
2022-11-16T16:30:40.159Z,10.13
2022-11-16T16:33:17.223Z,9.08
2022-11-16T16:35:51.108Z,9.67
2022-11-16T16:38:24.553Z,10.65
2022-11-16T16:41:02.699Z,9.75
2022-11-16T16:43:36.846Z,10.48
2022-11-16T16:46:14.249Z,10.70
2022-11-16T16:48:47.609Z,9.27
2022-11-16T16:51:21.179Z,10.45
2022-11-16T16:53:54.709Z,10.60
2022-11-16T16:56:28.144Z,10.03
2022-11-16T16:59:01.437Z,10.58
2022-11-16T17:01:35.204Z,8.85
2022-11-16T17:04:08.835Z,11.00
2022-11-16T17:06:46.468Z,8.63
2022-11-16T17:09:17.983Z,10.55
2022-11-16T17:11:52.053Z,10.78
2022-11-16T17:14:25.764Z,13.08
2022-11-16T17:17:02.370Z,10.25
2022-11-16T17:19:36.172Z,10.75
2022-11-16T17:22:10.319Z,9.68
2022-11-16T17:27:26.009Z,11.28
2022-11-16T17:30:02.299Z,9.78
2022-11-16T17:32:35.877Z,10.48
2022-11-16T17:35:10.149Z,9.95
2022-11-16T17:37:43.837Z,10.05
2022-11-16T17:40:17.626Z,10.15
2022-11-16T17:42:53.161Z,9.75
2022-11-16T17:45:27.631Z,10.10
2022-11-16T17:48:00.786Z,10.58
2022-11-16T17:50:34.482Z,9.75
2022-11-16T17:53:08.104Z,10.78
2022-11-16T17:55:41.488Z,9.78
2022-11-16T17:58:15.209Z,10.00
2022-11-16T18:00:49.211Z,9.35
2022-11-16T18:03:24.108Z,9.43
2022-11-16T18:06:05.948Z,11.18
2022-11-16T18:08:39.741Z,10.82
2022-11-16T18:11:15.442Z,9.23
2022-11-16T18:13:49.209Z,9.15
2022-11-16T18:16:24.011Z,9.60
2022-11-16T18:19:01.015Z,9.60
2022-11-16T18:21:36.474Z,9.65
2022-11-16T18:24:11.192Z,8.83
2022-11-16T18:26:45.242Z,9.35
2022-11-16T18:29:20.856Z,8.05
2022-11-16T18:31:54.730Z,7.83
2022-11-16T18:34:28.476Z,8.15
2022-11-16T18:37:01.978Z,8.18
2022-11-16T18:39:35.520Z,8.45
2022-11-16T18:42:10.763Z,8.30
2022-11-16T18:44:44.468Z,8.13
2022-11-16T18:47:18.583Z,9.93
2022-11-16T18:50:11.639Z,9.40
2022-11-16T19:08:42.177Z,7.25
2022-11-16T19:11:17.068Z,7.92
2022-11-16T19:13:54.244Z,10.03
2022-11-16T19:16:28.295Z,11.03
2022-11-16T19:19:02.230Z,8.58
2022-11-16T19:21:35.998Z,11.05
2022-11-16T19:24:10.914Z,9.78
2022-11-16T19:26:47.010Z,8.68
2022-11-16T19:29:23.686Z,11.03
2022-11-16T19:32:00.298Z,11.43
2022-11-16T19:34:34.185Z,11.88
2022-11-16T19:37:07.582Z,12.68
2022-11-16T19:39:41.143Z,14.60
2022-11-16T19:42:14.569Z,13.13
2022-11-16T19:44:48.063Z,12.13
2022-11-16T19:47:23.253Z,14.30
2022-11-16T19:49:56.583Z,12.75
2022-11-16T19:52:30.239Z,10.63
2022-11-16T19:55:03.762Z,11.70
2022-11-16T19:57:37.137Z,13.00
2022-11-16T20:00:13.089Z,15.08
2022-11-16T20:02:46.501Z,11.97
2022-11-16T20:05:20.312Z,11.10
2022-11-16T20:07:53.614Z,11.18
2022-11-16T20:10:28.570Z,16.05
2022-11-16T20:15:36.585Z,11.60
2022-11-16T20:18:10.143Z,9.98
2022-11-16T20:20:43.782Z,10.32
2022-11-16T20:23:19.905Z,11.10
2022-11-16T20:25:55.039Z,11.20
2022-11-16T20:28:28.557Z,11.63
2022-11-16T20:31:05.127Z,9.63
2022-11-16T20:33:39.368Z,10.60
2022-11-16T20:36:14.260Z,10.05
2022-11-16T20:38:47.933Z,10.08
2022-11-16T20:41:23.627Z,9.68
2022-11-16T20:43:58.468Z,8.78
2022-11-16T20:46:33.819Z,8.63
2022-11-16T20:49:07.533Z,8.50
2022-11-16T20:51:40.934Z,8.73
2022-11-16T20:54:14.597Z,9.20
2022-11-16T20:56:49.707Z,9.10
2022-11-16T20:59:22.912Z,9.95
2022-11-16T21:01:56.428Z,9.93
2022-11-16T21:04:30.047Z,10.53
2022-11-16T21:07:03.640Z,10.68
2022-11-16T21:09:39.042Z,11.45
2022-11-16T21:12:29.791Z,9.25
2022-11-16T21:15:03.626Z,9.60
2022-11-16T21:17:37.237Z,9.23
2022-11-16T21:20:26.857Z,10.00
2022-11-16T21:22:47.945Z,9.88
2022-11-16T21:25:21.584Z,10.03
2022-11-16T21:27:57.193Z,9.58
2022-11-16T21:30:30.851Z,9.38
2022-11-16T21:33:04.342Z,9.65
2022-11-16T21:35:37.941Z,9.80
2022-11-16T21:38:11.433Z,10.40
2022-11-16T21:40:45.089Z,10.45
2022-11-16T21:43:18.998Z,9.58
2022-11-16T21:45:52.637Z,9.20
2022-11-16T21:48:25.952Z,9.33
2022-11-16T21:51:03.514Z,9.73
2022-11-16T21:53:37.991Z,10.85
2022-11-16T21:56:15.213Z,10.60
2022-11-16T21:58:50.020Z,10.90
2022-11-16T22:01:24.097Z,10.85
2022-11-16T22:04:15.269Z,11.03
2022-11-16T22:07:06.287Z,9.30
2022-11-16T22:09:39.999Z,11.73
2022-11-16T22:12:13.345Z,10.20
2022-11-16T22:14:46.693Z,9.98
2022-11-16T22:17:20.027Z,11.65
2022-11-16T22:19:53.360Z,12.78
2022-11-16T22:22:26.842Z,10.78
2022-11-16T22:25:00.230Z,12.20
2022-11-16T22:27:52.130Z,12.88
2022-11-16T22:30:12.188Z,12.88
2022-11-16T22:32:46.235Z,12.43
2022-11-16T22:35:19.923Z,14.00
2022-11-16T22:37:53.765Z,11.68
2022-11-16T22:40:32.998Z,12.70
2022-11-16T22:43:07.286Z,12.47
2022-11-16T22:45:40.833Z,12.00
2022-11-16T22:48:14.753Z,14.55
2022-11-16T22:50:48.003Z,13.13
2022-11-16T22:53:21.530Z,13.10
2022-11-16T22:55:55.223Z,13.00
2022-11-16T22:58:28.904Z,13.78
2022-11-16T23:01:02.564Z,13.32
2022-11-16T23:03:37.280Z,11.55
2022-11-16T23:06:11.594Z,13.58
2022-11-16T23:08:45.860Z,13.68
2022-11-16T23:11:38.999Z,13.32
2022-11-16T23:14:32.458Z,13.30
2022-11-16T23:17:06.327Z,14.55
2022-11-16T23:19:57.992Z,14.93
2022-11-16T23:22:49.217Z,15.25
2022-11-16T23:25:40.513Z,15.13
2022-11-16T23:28:16.408Z,14.23
2022-11-16T23:30:49.850Z,14.40
2022-11-16T23:33:25.221Z,13.30
2022-11-16T23:35:58.834Z,13.45
2022-11-16T23:38:32.239Z,12.63
2022-11-16T23:41:24.870Z,12.88
2022-11-16T23:43:58.974Z,12.55
2022-11-16T23:46:34.264Z,11.78
2022-11-16T23:49:07.644Z,12.10
2022-11-16T23:51:41.247Z,12.37
2022-11-16T23:54:14.746Z,13.40
2022-11-16T23:56:48.280Z,12.43
2022-11-16T23:59:21.673Z,12.25
